createdAt,value
2022-11-11T00:01:01.103Z,6.70
2022-11-11T00:03:31.035Z,7.60
2022-11-11T00:06:01.947Z,6.27
2022-11-11T00:08:29.902Z,9.63
2022-11-11T00:11:01.534Z,6.20
2022-11-11T00:13:29.720Z,7.47
2022-11-11T00:15:57.640Z,9.37
2022-11-11T00:18:42.792Z,8.70
2022-11-11T00:21:32.909Z,8.03
2022-11-11T00:24:18.474Z,8.03
2022-11-11T00:26:46.552Z,7.03
2022-11-11T00:29:14.564Z,6.57
2022-11-11T00:31:56.306Z,8.83
2022-11-11T00:34:24.213Z,8.27
2022-11-11T00:36:52.574Z,9.23
2022-11-11T00:39:20.603Z,9.67
2022-11-11T00:41:48.566Z,9.83
2022-11-11T00:44:16.508Z,9.00
2022-11-11T00:47:01.688Z,10.13
2022-11-11T00:49:47.285Z,7.33
2022-11-11T00:52:16.752Z,7.67
2022-11-11T00:54:44.713Z,9.17
2022-11-11T00:57:12.632Z,10.77
2022-11-11T00:59:41.268Z,13.80
2022-11-11T01:02:09.242Z,6.93
2022-11-11T01:04:37.201Z,9.70
2022-11-11T01:07:05.232Z,8.13
2022-11-11T01:09:34.761Z,9.70
2022-11-11T01:12:02.684Z,11.87
2022-11-11T01:14:31.764Z,13.60
2022-11-11T01:16:59.735Z,14.40
2022-11-11T01:19:27.718Z,9.90
2022-11-11T01:21:55.753Z,10.73
2022-11-11T01:24:24.023Z,9.10
2022-11-11T01:26:53.539Z,11.83
2022-11-11T01:29:21.581Z,9.87
2022-11-11T01:31:49.642Z,8.77
2022-11-11T01:34:17.608Z,10.47
2022-11-11T01:36:45.595Z,9.90
2022-11-11T01:39:13.593Z,11.17
2022-11-11T01:41:41.531Z,11.60
2022-11-11T01:44:20.075Z,12.03
2022-11-11T01:46:49.772Z,10.83
2022-11-11T01:49:21.742Z,11.03
2022-11-11T01:51:52.670Z,9.00
2022-11-11T01:54:23.082Z,11.80
2022-11-11T01:56:52.303Z,12.00
2022-11-11T01:59:22.265Z,12.30
2022-11-11T02:01:50.515Z,13.27
2022-11-11T02:04:36.688Z,10.57
2022-11-11T02:07:05.939Z,11.17
2022-11-11T02:09:33.975Z,14.57
2022-11-11T02:12:22.706Z,13.27
2022-11-11T02:14:54.683Z,14.03
2022-11-11T02:17:22.900Z,15.27
2022-11-11T02:19:52.975Z,11.83
2022-11-11T02:22:25.028Z,13.47
2022-11-11T02:24:55.586Z,17.83
2022-11-11T02:27:25.396Z,16.07
2022-11-11T02:29:55.678Z,18.57
2022-11-11T02:32:23.778Z,12.00
2022-11-11T02:34:51.729Z,14.27
2022-11-11T02:37:21.427Z,15.53
2022-11-11T02:40:03.084Z,12.33
2022-11-11T02:42:34.842Z,12.00
2022-11-11T02:45:02.938Z,15.07
2022-11-11T02:47:30.874Z,12.07
2022-11-11T02:49:58.879Z,15.03
2022-11-11T02:52:27.215Z,14.07
2022-11-11T02:54:55.437Z,15.17
2022-11-11T02:57:23.731Z,14.37
2022-11-11T02:59:53.174Z,14.53
2022-11-11T03:02:21.375Z,13.20
2022-11-11T03:04:49.379Z,13.17
2022-11-11T03:07:17.367Z,14.40
2022-11-11T03:09:45.663Z,15.63
2022-11-11T03:12:13.600Z,12.90
2022-11-11T03:14:41.689Z,14.87
2022-11-11T03:17:28.903Z,15.23
2022-11-11T03:20:17.900Z,13.60
2022-11-11T03:22:54.819Z,11.80
2022-11-11T03:25:41.373Z,14.67
2022-11-11T03:28:10.374Z,11.30
2022-11-11T03:30:38.774Z,15.97
2022-11-11T03:33:08.132Z,11.13
2022-11-11T03:35:36.350Z,13.97
2022-11-11T03:38:24.145Z,13.73
2022-11-11T03:40:53.323Z,13.67
2022-11-11T03:43:22.031Z,11.63
2022-11-11T03:45:50.262Z,16.00
2022-11-11T03:48:19.598Z,14.00
2022-11-11T03:50:48.563Z,14.93
2022-11-11T03:53:16.825Z,13.73
2022-11-11T03:55:45.183Z,15.13
2022-11-11T03:58:13.338Z,16.17
2022-11-11T04:00:41.271Z,14.20
2022-11-11T04:03:28.839Z,14.63
2022-11-11T04:06:15.869Z,14.77
2022-11-11T04:09:01.450Z,12.57
2022-11-11T04:11:30.034Z,12.63
2022-11-11T04:14:16.459Z,12.70
2022-11-11T04:16:44.412Z,14.33
2022-11-11T04:19:29.906Z,18.53
2022-11-11T04:21:59.288Z,13.33
2022-11-11T04:24:44.780Z,15.10
2022-11-11T04:27:13.528Z,13.83
2022-11-11T04:29:40.765Z,15.23
2022-11-11T04:32:27.117Z,14.67
2022-11-11T04:34:55.537Z,16.63
2022-11-11T04:37:25.329Z,11.97
2022-11-11T04:40:11.030Z,15.27
2022-11-11T04:42:39.594Z,14.17
2022-11-11T04:45:25.732Z,14.50
2022-11-11T04:47:54.370Z,14.33
2022-11-11T04:50:22.520Z,14.00
2022-11-11T04:52:51.854Z,12.17
2022-11-11T04:55:37.173Z,15.87
2022-11-11T04:58:05.329Z,15.43
2022-11-11T05:00:33.316Z,13.87
2022-11-11T05:03:19.221Z,14.63
2022-11-11T05:06:05.062Z,13.93
2022-11-11T05:08:52.772Z,15.77
2022-11-11T05:11:20.968Z,13.60
2022-11-11T05:14:06.419Z,16.47
2022-11-11T05:16:53.428Z,13.20
2022-11-11T05:19:38.905Z,17.33
2022-11-11T05:22:09.726Z,14.57
2022-11-11T05:24:56.566Z,13.57
2022-11-11T05:27:24.556Z,14.97
2022-11-11T05:29:52.451Z,13.30
2022-11-11T05:32:20.828Z,12.27
2022-11-11T05:34:48.779Z,12.73
2022-11-11T05:37:16.968Z,12.30
2022-11-11T05:39:46.360Z,13.93
2022-11-11T05:42:14.770Z,13.20
2022-11-11T05:44:43.088Z,11.33
2022-11-11T05:47:11.074Z,17.40
2022-11-11T05:49:39.041Z,13.53
2022-11-11T05:52:08.118Z,14.70
2022-11-11T05:54:36.237Z,15.43
2022-11-11T05:57:06.176Z,13.53
2022-11-11T05:59:34.076Z,11.90
2022-11-11T06:02:02.130Z,14.93
2022-11-11T06:04:30.228Z,14.13
2022-11-11T06:06:58.179Z,15.10
2022-11-11T06:09:26.150Z,14.10
2022-11-11T06:11:54.139Z,13.47
2022-11-11T06:14:23.482Z,12.03
2022-11-11T06:16:51.401Z,15.13
2022-11-11T06:19:19.370Z,13.23
2022-11-11T06:22:01.056Z,14.23
2022-11-11T06:24:29.158Z,15.90
2022-11-11T06:26:57.203Z,15.73
2022-11-11T06:29:26.557Z,13.93
2022-11-11T06:31:54.451Z,12.43
2022-11-11T06:34:22.386Z,16.03
2022-11-11T06:36:50.313Z,15.23
2022-11-11T06:39:18.223Z,16.60
2022-11-11T06:41:46.151Z,15.80
2022-11-11T06:44:14.074Z,15.83
2022-11-11T06:46:48.522Z,15.90
2022-11-11T06:49:16.487Z,15.50
2022-11-11T06:51:44.432Z,17.03
2022-11-11T06:54:12.347Z,14.07
2022-11-11T06:56:40.428Z,12.80
2022-11-11T06:59:08.326Z,15.47
2022-11-11T07:01:36.210Z,13.57
2022-11-11T07:04:05.706Z,13.80
2022-11-11T07:06:33.694Z,15.63
2022-11-11T07:09:01.686Z,16.03
2022-11-11T07:11:29.606Z,15.33
2022-11-11T07:13:57.568Z,12.53
2022-11-11T07:16:25.478Z,12.17
2022-11-11T07:18:53.400Z,14.60
2022-11-11T07:21:22.749Z,14.40
2022-11-11T07:23:50.736Z,14.77
2022-11-11T07:26:18.645Z,13.83
2022-11-11T07:28:46.550Z,11.87
2022-11-11T07:31:14.495Z,14.47
2022-11-11T07:33:42.755Z,11.33
2022-11-11T07:36:10.842Z,14.87
2022-11-11T07:38:40.298Z,13.70
2022-11-11T07:41:08.265Z,15.10
2022-11-11T07:43:36.196Z,16.17
2022-11-11T07:46:04.122Z,14.83
2022-11-11T07:48:32.005Z,14.20
2022-11-11T07:50:59.989Z,13.67
2022-11-11T07:53:28.437Z,13.50
2022-11-11T07:55:57.753Z,13.00
2022-11-11T07:58:26.231Z,15.40
2022-11-11T08:00:54.436Z,12.40
2022-11-11T08:03:22.829Z,15.93
2022-11-11T08:05:51.010Z,13.63
2022-11-11T08:08:20.917Z,14.07
2022-11-11T08:10:49.007Z,13.63
2022-11-11T08:13:35.532Z,11.97
2022-11-11T08:16:06.531Z,12.57
2022-11-11T08:18:34.832Z,14.80
2022-11-11T08:21:02.884Z,11.33
2022-11-11T08:26:28.963Z,12.03
2022-11-11T08:28:59.460Z,14.67
2022-11-11T08:31:27.643Z,10.50
2022-11-11T08:33:55.857Z,12.90
2022-11-11T08:36:25.491Z,11.50
2022-11-11T08:38:53.885Z,13.73
2022-11-11T08:41:23.944Z,12.20
2022-11-11T08:43:54.947Z,12.30
2022-11-11T08:46:24.876Z,10.63
2022-11-11T08:48:52.873Z,9.80
2022-11-11T08:51:20.773Z,10.07
2022-11-11T08:53:48.752Z,10.67
2022-11-11T08:56:16.910Z,10.33
2022-11-11T08:58:44.790Z,11.30
2022-11-11T09:01:13.836Z,12.93
2022-11-11T09:03:45.405Z,12.30
2022-11-11T09:06:13.414Z,10.53
2022-11-11T09:08:43.090Z,9.83
2022-11-11T09:11:11.107Z,10.93
2022-11-11T09:13:39.033Z,11.27
2022-11-11T09:16:07.283Z,9.97
2022-11-11T09:18:35.350Z,10.03
2022-11-11T09:21:04.838Z,11.17
2022-11-11T09:23:32.807Z,11.40
2022-11-11T09:26:04.193Z,12.90
2022-11-11T09:28:34.102Z,12.93
2022-11-11T09:31:16.634Z,10.40
2022-11-11T09:33:50.253Z,8.93
2022-11-11T09:36:20.076Z,10.87
2022-11-11T09:38:48.054Z,10.00
2022-11-11T09:41:19.979Z,9.53
2022-11-11T09:43:53.739Z,11.03
2022-11-11T09:46:24.706Z,11.07
2022-11-11T09:48:59.058Z,10.90
2022-11-11T09:51:30.739Z,8.93
2022-11-11T09:54:00.699Z,10.57
2022-11-11T09:56:31.589Z,10.83
2022-11-11T09:59:02.261Z,12.60
2022-11-11T10:01:34.286Z,12.77
2022-11-11T10:04:03.606Z,11.27
2022-11-11T10:06:34.471Z,12.10
2022-11-11T10:09:03.706Z,9.33
2022-11-11T10:11:37.766Z,12.63
2022-11-11T10:14:05.721Z,11.97
2022-11-11T10:16:38.858Z,11.83
2022-11-11T10:19:15.318Z,10.20
2022-11-11T10:22:10.981Z,10.20
2022-11-11T10:24:43.592Z,10.10
2022-11-11T10:27:17.050Z,12.07
2022-11-11T10:29:45.593Z,10.50
2022-11-11T10:32:17.809Z,10.83
2022-11-11T10:34:46.020Z,10.67
2022-11-11T10:37:20.150Z,11.37
2022-11-11T10:39:53.538Z,8.53
2022-11-11T10:42:21.597Z,13.50
2022-11-11T10:44:49.516Z,9.40
2022-11-11T10:47:28.750Z,8.37
2022-11-11T10:50:00.909Z,11.37
2022-11-11T10:52:34.884Z,11.27
2022-11-11T10:55:05.412Z,10.67
2022-11-11T10:57:37.249Z,10.77
2022-11-11T11:00:07.549Z,8.63
2022-11-11T11:02:38.538Z,9.90
2022-11-11T11:05:07.991Z,8.83
2022-11-11T11:07:41.901Z,10.53
2022-11-11T11:10:13.676Z,15.43
2022-11-11T11:12:44.696Z,12.90
2022-11-11T11:15:14.869Z,9.93
2022-11-11T11:17:46.864Z,12.57
2022-11-11T11:20:16.911Z,10.70
2022-11-11T11:22:50.645Z,10.17
2022-11-11T11:25:20.122Z,7.87
2022-11-11T11:27:48.484Z,9.03
2022-11-11T11:30:17.575Z,10.70
2022-11-11T11:32:57.209Z,8.07
2022-11-11T11:35:32.838Z,10.93
2022-11-11T11:38:02.195Z,8.77
2022-11-11T11:40:45.575Z,8.37
2022-11-11T11:43:26.953Z,7.50
2022-11-11T11:45:56.494Z,8.93
2022-11-11T11:48:32.538Z,11.13
2022-11-11T11:51:06.824Z,9.63
2022-11-11T11:53:44.484Z,9.03
2022-11-11T11:56:17.521Z,11.47
2022-11-11T11:58:55.015Z,8.03
2022-11-11T12:01:26.142Z,8.83
2022-11-11T12:04:11.977Z,10.27
2022-11-11T12:06:44.937Z,7.03
2022-11-11T12:09:23.077Z,10.67
2022-11-11T12:11:53.344Z,9.00
2022-11-11T12:14:46.340Z,8.97
2022-11-11T12:17:20.339Z,8.17
2022-11-11T12:19:53.872Z,9.40
2022-11-11T12:22:28.459Z,8.47
2022-11-11T12:25:03.681Z,10.20
2022-11-11T12:27:35.522Z,8.27
2022-11-11T12:30:05.732Z,10.47
2022-11-11T12:32:49.078Z,8.83
2022-11-11T12:35:27.786Z,9.23
2022-11-11T12:38:03.922Z,8.53
2022-11-11T12:40:39.727Z,6.03
2022-11-11T12:43:12.869Z,8.10
2022-11-11T12:45:43.947Z,9.83
2022-11-11T12:48:18.721Z,9.30
2022-11-11T12:50:51.010Z,11.67
2022-11-11T12:53:24.105Z,8.63
2022-11-11T12:55:59.625Z,7.57
2022-11-11T12:58:32.209Z,8.83
2022-11-11T13:01:05.539Z,9.47
2022-11-11T13:03:40.646Z,9.70
2022-11-11T13:06:14.664Z,7.07
2022-11-11T13:08:49.657Z,7.57
2022-11-11T13:11:26.137Z,8.63
2022-11-11T13:13:58.708Z,8.07
2022-11-11T13:16:27.473Z,7.03
2022-11-11T13:18:58.268Z,8.57
2022-11-11T13:21:27.882Z,7.17
2022-11-11T13:23:55.773Z,7.47
2022-11-11T13:26:31.166Z,6.83
2022-11-11T13:29:08.487Z,6.93
2022-11-11T13:31:37.396Z,8.07
2022-11-11T13:34:06.127Z,6.40
2022-11-11T13:36:41.691Z,7.13
2022-11-11T13:39:23.377Z,10.13
2022-11-11T13:41:54.529Z,8.60
2022-11-11T13:44:24.429Z,6.57
2022-11-11T13:46:52.835Z,6.47
2022-11-11T13:49:26.318Z,8.93
2022-11-11T13:52:00.879Z,7.23
2022-11-11T13:54:31.012Z,6.00
2022-11-11T13:57:05.087Z,7.83
2022-11-11T13:59:35.337Z,7.27
2022-11-11T14:02:28.042Z,8.03
2022-11-11T14:05:14.231Z,8.00
2022-11-11T14:07:58.608Z,6.73
2022-11-11T14:10:51.158Z,8.83
2022-11-11T14:13:39.742Z,6.97
2022-11-11T14:16:11.357Z,7.03
2022-11-11T14:18:41.059Z,8.03
2022-11-11T14:21:09.553Z,7.03
2022-11-11T14:23:39.254Z,7.07
2022-11-11T14:26:24.902Z,6.90
2022-11-11T14:28:54.749Z,6.47
2022-11-11T14:31:38.926Z,10.50
2022-11-11T14:34:11.939Z,5.83
2022-11-11T14:36:43.122Z,7.60
2022-11-11T14:39:16.303Z,5.63
2022-11-11T14:41:48.788Z,4.87
2022-11-11T14:44:40.884Z,4.83
2022-11-11T14:47:33.392Z,9.60
2022-11-11T14:50:02.225Z,6.30
2022-11-11T14:52:33.816Z,6.07
2022-11-11T14:55:07.980Z,5.47
2022-11-11T14:57:38.300Z,6.43
2022-11-11T15:00:11.413Z,6.70
2022-11-11T15:02:43.511Z,7.13
2022-11-11T15:05:14.406Z,7.33
2022-11-11T15:07:47.600Z,5.63
2022-11-11T15:10:21.604Z,7.30
2022-11-11T15:13:19.375Z,6.07
2022-11-11T15:15:51.243Z,4.93
2022-11-11T15:18:29.804Z,5.07
2022-11-11T15:21:01.915Z,7.57
2022-11-11T15:23:34.678Z,10.67
2022-11-11T15:26:07.740Z,10.87
2022-11-11T15:28:51.773Z,9.47
2022-11-11T15:31:22.652Z,9.73
2022-11-11T15:33:57.884Z,10.53
2022-11-11T15:36:31.271Z,9.23
2022-11-11T15:39:00.516Z,8.97
2022-11-11T15:41:37.437Z,7.37
2022-11-11T15:44:09.148Z,9.77
2022-11-11T15:46:39.333Z,8.03
2022-11-11T15:49:13.331Z,5.07
2022-11-11T15:51:44.504Z,8.13
2022-11-11T15:54:19.911Z,6.63
2022-11-11T15:56:47.874Z,6.27
2022-11-11T15:59:19.694Z,4.70
2022-11-11T16:01:47.695Z,7.97
2022-11-11T16:04:53.382Z,6.50
2022-11-11T16:07:07.672Z,8.47
2022-11-11T16:09:39.225Z,7.07
2022-11-11T16:12:11.838Z,8.30
2022-11-11T16:14:42.183Z,6.40
2022-11-11T16:17:10.179Z,7.50
2022-11-11T16:19:46.208Z,11.47
2022-11-11T16:22:19.203Z,6.60
2022-11-11T16:24:47.579Z,7.43
2022-11-11T16:27:17.897Z,6.87
2022-11-11T16:29:45.853Z,8.13
2022-11-11T16:32:21.262Z,6.20
2022-11-11T16:34:50.778Z,6.67
2022-11-11T16:37:19.174Z,7.37
2022-11-11T16:39:47.505Z,7.00
2022-11-11T16:42:18.954Z,10.57
2022-11-11T16:44:49.771Z,7.73
2022-11-11T16:47:42.172Z,6.93
2022-11-11T16:50:12.822Z,10.23
2022-11-11T16:52:42.424Z,9.63
2022-11-11T16:55:11.057Z,10.80
2022-11-11T16:57:43.289Z,10.63
2022-11-11T17:00:14.133Z,15.17
2022-11-11T17:02:42.056Z,17.43
2022-11-11T17:05:11.681Z,14.23
2022-11-11T17:07:40.550Z,16.67
2022-11-11T17:10:13.238Z,13.70
2022-11-11T17:12:41.389Z,12.47
2022-11-11T17:15:10.191Z,8.47
2022-11-11T17:17:38.686Z,12.53
2022-11-11T17:20:07.776Z,9.57
2022-11-11T17:22:37.142Z,14.80
2022-11-11T17:25:05.232Z,11.17
2022-11-11T17:27:33.153Z,10.33
2022-11-11T17:30:01.074Z,12.50
2022-11-11T17:32:28.951Z,13.13
2022-11-11T17:34:56.875Z,8.13
2022-11-11T17:37:24.825Z,9.80
2022-11-11T17:39:54.147Z,10.83
2022-11-11T17:42:22.023Z,9.90
2022-11-11T17:44:49.948Z,9.77
2022-11-11T17:47:17.842Z,8.00
2022-11-11T17:49:56.765Z,11.93
2022-11-11T17:52:25.320Z,9.27
2022-11-11T17:54:54.669Z,9.90
2022-11-11T17:57:22.551Z,14.40
2022-11-11T17:59:50.427Z,12.27
2022-11-11T18:02:20.181Z,9.50
2022-11-11T18:04:48.150Z,10.10
2022-11-11T18:07:16.221Z,11.63
2022-11-11T18:09:44.294Z,10.70
2022-11-11T18:12:13.762Z,13.47
2022-11-11T18:14:41.708Z,10.50
2022-11-11T18:17:09.753Z,11.37
2022-11-11T18:19:37.664Z,15.20
2022-11-11T18:22:05.555Z,13.93
2022-11-11T18:24:33.454Z,15.70
2022-11-11T18:27:01.399Z,13.33
2022-11-11T18:29:31.275Z,14.07
2022-11-11T18:31:59.357Z,10.70
2022-11-11T18:34:27.257Z,15.33
2022-11-11T18:36:55.424Z,11.50
2022-11-11T18:39:23.413Z,12.63
2022-11-11T18:41:51.330Z,15.33
2022-11-11T18:44:19.276Z,12.53
2022-11-11T18:46:50.547Z,12.37
2022-11-11T18:49:18.458Z,11.80
2022-11-11T18:51:46.362Z,15.83
2022-11-11T18:54:14.267Z,13.00
2022-11-11T18:56:42.289Z,13.73
2022-11-11T18:59:10.367Z,12.77
2022-11-11T19:01:39.758Z,11.57
2022-11-11T19:04:09.827Z,13.87
2022-11-11T19:06:39.073Z,14.73
2022-11-11T19:09:08.163Z,13.67
2022-11-11T19:11:38.085Z,15.53
2022-11-11T19:14:06.515Z,18.43
2022-11-11T19:16:34.794Z,17.57
2022-11-11T19:19:03.261Z,19.53
2022-11-11T19:21:33.229Z,17.43
2022-11-11T19:24:02.539Z,14.47
2022-11-11T19:26:31.568Z,16.93
2022-11-11T19:29:00.087Z,15.00
2022-11-11T19:31:29.781Z,15.60
2022-11-11T19:33:58.237Z,13.53
2022-11-11T19:36:28.633Z,14.07
2022-11-11T19:38:59.038Z,13.27
2022-11-11T19:41:27.858Z,16.00
2022-11-11T19:43:58.659Z,15.87
2022-11-11T19:46:27.373Z,15.13
2022-11-11T19:48:56.365Z,17.53
2022-11-11T19:51:25.528Z,15.60
2022-11-11T19:53:56.728Z,15.07
2022-11-11T19:56:30.372Z,16.87
2022-11-11T19:58:58.316Z,14.33
2022-11-11T20:01:27.084Z,12.90
2022-11-11T20:03:55.496Z,15.47
2022-11-11T20:06:25.053Z,16.07
2022-11-11T20:08:53.678Z,17.00
2022-11-11T20:11:22.590Z,14.17
2022-11-11T20:13:51.950Z,15.03
2022-11-11T20:16:20.691Z,17.53
2022-11-11T20:18:48.636Z,16.60
2022-11-11T20:21:16.575Z,17.67
2022-11-11T20:23:44.490Z,13.50
2022-11-11T20:26:13.778Z,17.70
2022-11-11T20:28:42.506Z,18.73
2022-11-11T20:31:12.745Z,16.03
2022-11-11T20:33:41.075Z,17.10
2022-11-11T20:36:10.122Z,22.17
2022-11-11T20:38:38.439Z,16.70
2022-11-11T20:41:07.266Z,19.70
2022-11-11T20:43:35.963Z,15.10
2022-11-11T20:46:04.046Z,18.07
2022-11-11T20:48:33.404Z,17.07
2022-11-11T20:51:04.578Z,17.33
2022-11-11T20:53:32.582Z,16.43
2022-11-11T20:56:04.263Z,15.93
2022-11-11T20:58:33.653Z,20.73
2022-11-11T21:01:04.980Z,18.47
2022-11-11T21:03:34.293Z,20.53
2022-11-11T21:06:03.678Z,19.50
2022-11-11T21:08:33.067Z,21.23
2022-11-11T21:11:01.088Z,23.83
2022-11-11T21:13:29.915Z,16.30
2022-11-11T21:16:03.655Z,18.47
2022-11-11T21:18:34.122Z,19.20
2022-11-11T21:21:13.463Z,22.80
2022-11-11T21:23:41.900Z,22.43
2022-11-11T21:26:10.736Z,20.70
2022-11-11T21:28:39.587Z,21.00
2022-11-11T21:31:08.655Z,22.03
2022-11-11T21:33:36.828Z,24.37
2022-11-11T21:36:05.903Z,24.43
2022-11-11T21:38:36.108Z,23.77
2022-11-11T21:41:04.385Z,26.03
2022-11-11T21:43:35.484Z,24.67
2022-11-11T21:46:06.906Z,22.47
2022-11-11T21:48:35.265Z,19.17
2022-11-11T21:51:04.375Z,19.10
2022-11-11T21:53:32.317Z,19.63
2022-11-11T21:56:02.377Z,21.30
2022-11-11T21:58:30.718Z,24.57
2022-11-11T22:01:03.852Z,21.20
2022-11-11T22:03:32.449Z,24.63
2022-11-11T22:06:07.554Z,22.80
2022-11-11T22:08:35.554Z,19.90
2022-11-11T22:11:06.329Z,22.57
2022-11-11T22:13:34.710Z,22.43
2022-11-11T22:16:03.087Z,28.37
2022-11-11T22:18:31.012Z,21.33
2022-11-11T22:21:03.749Z,20.00
2022-11-11T22:23:31.693Z,26.03
2022-11-11T22:26:02.675Z,25.33
2022-11-11T22:28:32.259Z,27.40
2022-11-11T22:31:10.278Z,26.43
2022-11-11T22:33:38.355Z,26.13
2022-11-11T22:36:07.657Z,22.43
2022-11-11T22:38:35.970Z,21.50
2022-11-11T22:41:04.604Z,24.80
2022-11-11T22:43:58.409Z,19.80
2022-11-11T22:46:26.003Z,19.63
2022-11-11T22:48:55.419Z,21.90
2022-11-11T22:51:24.087Z,22.73
2022-11-11T22:53:55.399Z,27.90
2022-11-11T22:56:23.296Z,22.50
2022-11-11T22:58:52.634Z,25.17
2022-11-11T23:01:27.965Z,18.57
2022-11-11T23:03:57.637Z,20.33
2022-11-11T23:06:26.520Z,23.37
2022-11-11T23:08:54.633Z,18.83
2022-11-11T23:11:23.155Z,23.30
2022-11-11T23:13:52.842Z,21.93
2022-11-11T23:16:22.026Z,24.13
2022-11-11T23:18:49.960Z,24.47
2022-11-11T23:21:20.763Z,21.00
2022-11-11T23:23:49.754Z,20.67
2022-11-11T23:26:19.043Z,26.07
2022-11-11T23:28:47.066Z,22.47
2022-11-11T23:31:17.203Z,23.73
2022-11-11T23:33:45.772Z,22.97
2022-11-11T23:36:14.616Z,24.10
2022-11-11T23:38:42.932Z,22.93
2022-11-11T23:41:11.060Z,19.77
2022-11-11T23:43:39.410Z,21.67
2022-11-11T23:46:07.998Z,20.83
2022-11-11T23:48:37.558Z,23.37
2022-11-11T23:51:05.619Z,22.40
2022-11-11T23:53:33.931Z,26.50
2022-11-11T23:56:01.832Z,24.07
2022-11-11T23:58:30.000Z,22.63
